Terminal Aerodrome Forecast
Issued by NWS Wilmington, OH

Current Version | Previous Version | Graphics & Text | Print | Product List | Glossary On
Versions: 1 2 3 4 5 6 7 8 9 10 11 12 13 14 15 16 17 18 19 20 21 22 23 24 25 26
000
FTUS41 KILN 231700
TAFILN
TAF
KILN 231729Z 2318/2418 17006KT 4SM -DZ BR OVC006
     FM240000 13005KT 5SM -SHRA BR OVC006
     FM240600 12008KT 5SM BR OVC006
     FM240900 14010KT 5SM -SHRA BR OVC008
     FM241400 17016G23KT P6SM VCSH OVC012=

USA.gov is the U.S. government's official web portal to all federal, state and local government web resources and services.